Flight Track Log - Related Links

Times and Time Zones

All times are in EDT time to prevent confusion due to time zone crossing. See the UAL1006 flight status page for this flight to view local times or setup timezone preferences in your user account.

Time Position Orientation Groundspeed Altitude Reporting Facility
EDT Latitude Longitude Course Direction KTS MPH feet Rate Location/Type
Wed 02:30:00 AM 8.6337 -77.0854 323° Northwest  Level FlightAware Approximate
Wed 02:31:00 AM 8.7271 -77.1562 323° Northwest  Level FlightAware Approximate
Wed 02:32:00 AM 8.8206 -77.2271 323° Northwest  Level FlightAware Approximate
Wed 02:33:00 AM 8.9141 -77.2980 323° Northwest  Level FlightAware Approximate
Wed 02:34:00 AM 9.0075 -77.3689 323° Northwest  Level FlightAware Approximate
Wed 02:35:00 AM 9.1010 -77.4399 323° Northwest  Level FlightAware Approximate
Wed 02:36:00 AM 9.1944 -77.5109 323° Northwest  Level FlightAware Approximate
Wed 02:37:00 AM 9.2878 -77.5820 323° Northwest  Level FlightAware Approximate
Wed 02:38:00 AM 9.3812 -77.6531 323° Northwest  Level FlightAware Approximate
Wed 02:39:00 AM 9.4745 -77.7242 323° Northwest  Level FlightAware Approximate
Wed 02:40:00 AM 9.5679 -77.7954 323° Northwest  Level FlightAware Approximate
Wed 02:41:00 AM 9.6612 -77.8666 323° Northwest  Level FlightAware Approximate
Wed 02:42:00 AM 9.7546 -77.9379 323° Northwest  Level FlightAware Approximate
Wed 02:43:00 AM 9.8479 -78.0092 323° Northwest  Level FlightAware Approximate
Wed 02:44:00 AM 9.9419 -78.0810 323° Northwest  Level FlightAware Approximate
Wed 02:45:00 AM 10.0359 -78.1528 323° Northwest  Level FlightAware Approximate
Wed 02:46:00 AM 10.1299 -78.2247 323° Northwest  Level FlightAware Approximate
Wed 02:47:00 AM 10.2239 -78.2966 323° Northwest  Level FlightAware Approximate
Wed 02:48:00 AM 10.3179 -78.3685 323° Northwest  Level FlightAware Approximate
Wed 02:49:00 AM 10.4119 -78.4405 323° Northwest  Level FlightAware Approximate
Wed 02:50:00 AM 10.5058 -78.5125 323° Northwest  Level FlightAware Approximate
Wed 02:51:00 AM 10.5998 -78.5845 323° Northwest  Level FlightAware Approximate
Wed 02:52:00 AM 10.6937 -78.6566 323° Northwest  Level FlightAware Approximate
Wed 02:53:00 AM 10.7876 -78.7288 323° Northwest  Level FlightAware Approximate
Wed 02:54:00 AM 10.8815 -78.8009 323° Northwest  Level FlightAware Approximate
Wed 02:55:00 AM 10.9754 -78.8732 323° Northwest  Level FlightAware Approximate
Wed 02:56:00 AM 11.0692 -78.9454 323° Northwest  Level FlightAware Approximate
Wed 02:57:00 AM 11.1631 -79.0178 323° Northwest  Level FlightAware Approximate
Wed 02:58:00 AM 11.2569 -79.0901 323° Northwest  Level FlightAware Approximate
Wed 02:59:00 AM 11.3507 -79.1626 323° Northwest  Level FlightAware Approximate
Wed 03:00:00 AM 11.4445 -79.2350 323° Northwest  Level FlightAware Approximate
Wed 03:01:00 AM 11.5382 -79.3075 323° Northwest  Level FlightAware Approximate
Wed 03:02:00 AM 11.6320 -79.3801 323° Northwest  Level FlightAware Approximate
Wed 03:03:00 AM 11.7257 -79.4527 323° Northwest  Level FlightAware Approximate
Wed 03:04:00 AM 11.8194 -79.5254 323° Northwest  Level FlightAware Approximate
Wed 03:05:00 AM 11.9131 -79.5981 323° Northwest  Level FlightAware Approximate
Wed 03:06:00 AM 12.0068 -79.6708 323° Northwest  Level FlightAware Approximate
Wed 03:07:00 AM 12.1005 -79.7436 323° Northwest  Level FlightAware Approximate
Wed 03:08:00 AM 12.1941 -79.8165 323° Northwest  Level FlightAware Approximate
Wed 03:09:00 AM 12.2877 -79.8894 323° Northwest  Level FlightAware Approximate
Wed 03:10:00 AM 12.3813 -79.9624 323° Northwest  Level FlightAware Approximate
Wed 03:11:00 AM 12.4749 -80.0354 323° Northwest  Level FlightAware Approximate
Wed 03:12:00 AM 12.5685 -80.1085 323° Northwest  Level FlightAware Approximate
Wed 03:13:00 AM 12.6620 -80.1816 323° Northwest  Level FlightAware Approximate
Wed 03:14:00 AM 12.7555 -80.2548 323° Northwest  Level FlightAware Approximate
Wed 03:15:00 AM 12.8490 -80.3280 323° Northwest  Level FlightAware Approximate
Wed 03:16:00 AM 12.9425 -80.4013 323° Northwest  Level FlightAware Approximate
Wed 03:17:00 AM 13.0360 -80.4746 323° Northwest  Level FlightAware Approximate
Wed 03:18:00 AM 13.1294 -80.5480 323° Northwest  Level FlightAware Approximate
Wed 03:19:00 AM 13.2228 -80.6215 323° Northwest  Level FlightAware Approximate
Wed 03:20:00 AM 13.3162 -80.6950 323° Northwest  Level FlightAware Approximate
Wed 03:21:00 AM 13.4096 -80.7685 323° Northwest  Level FlightAware Approximate
Wed 03:22:00 AM 13.5030 -80.8421 323° Northwest  Level FlightAware Approximate
Wed 03:23:00 AM 13.5963 -80.9158 323° Northwest  Level FlightAware Approximate
Wed 03:24:00 AM 13.6896 -80.9896 322° Northwest  Level FlightAware Approximate
Wed 03:25:00 AM 13.7829 -81.0633 322° Northwest  Level FlightAware Approximate
Wed 03:26:00 AM 13.8762 -81.1372 322° Northwest  Level FlightAware Approximate
Wed 03:27:00 AM 13.9694 -81.2111 322° Northwest  Level FlightAware Approximate
Wed 03:28:00 AM 14.0626 -81.2851 322° Northwest  Level FlightAware Approximate
Wed 03:29:00 AM 14.1558 -81.3591 322° Northwest  Level FlightAware Approximate
Wed 03:30:00 AM 14.2490 -81.4332 322° Northwest  Level FlightAware Approximate
Wed 03:31:00 AM 14.3422 -81.5074 322° Northwest  Level FlightAware Approximate
Wed 03:32:00 AM 14.4353 -81.5816 322° Northwest  Level FlightAware Approximate
Wed 03:33:00 AM 14.5284 -81.6559 322° Northwest  Level FlightAware Approximate
Wed 03:34:00 AM 14.6215 -81.7302 322° Northwest  Level FlightAware Approximate
Wed 03:35:00 AM 14.7146 -81.8046 322° Northwest  Level FlightAware Approximate
Wed 03:36:00 AM 14.8076 -81.8791 322° Northwest  Level FlightAware Approximate
Wed 03:37:00 AM 14.9006 -81.9536 322° Northwest  Level FlightAware Approximate
Wed 03:38:00 AM 14.9936 -82.0282 322° Northwest  Level FlightAware Approximate
Wed 03:39:00 AM 15.0845 -82.1057 320° Northwest  Level FlightAware Approximate
Wed 03:40:00 AM 15.1751 -82.1834 320° Northwest  Level FlightAware Approximate
Wed 03:41:00 AM 15.2666 -82.2600 322° Northwest  Level FlightAware Approximate
Wed 03:42:00 AM 15.3596 -82.3346 322° Northwest  Level FlightAware Approximate
Wed 03:43:00 AM 15.4527 -82.4094 322° Northwest  Level FlightAware Approximate
Wed 03:44:00 AM 15.5457 -82.4842 322° Northwest  Level FlightAware Approximate
Wed 03:45:00 AM 15.6386 -82.5590 322° Northwest  Level FlightAware Approximate
Wed 03:46:00 AM 15.7316 -82.6339 322° Northwest  Level FlightAware Approximate
Wed 03:47:00 AM 15.8245 -82.7089 322° Northwest  Level FlightAware Approximate
Wed 03:48:00 AM 15.9174 -82.7840 322° Northwest  Level FlightAware Approximate
Wed 03:49:00 AM 16.0103 -82.8591 322° Northwest  Level FlightAware Approximate
Wed 03:50:00 AM 16.1038 -82.9348 322° Northwest  Level FlightAware Approximate
Wed 03:51:00 AM 16.1973 -83.0107 322° Northwest  Level FlightAware Approximate
Wed 03:52:00 AM 16.2908 -83.0865 322° Northwest  Level FlightAware Approximate
Wed 03:53:00 AM 16.3842 -83.1625 322° Northwest  Level FlightAware Approximate
Wed 03:54:00 AM 16.4776 -83.2385 322° Northwest  Level FlightAware Approximate
Wed 03:55:00 AM 16.5710 -83.3147 322° Northwest  Level FlightAware Approximate
Wed 03:56:00 AM 16.6644 -83.3908 322° Northwest  Level FlightAware Approximate
Wed 03:57:00 AM 16.7577 -83.4671 322° Northwest  Level FlightAware Approximate
Wed 03:58:00 AM 16.8510 -83.5434 322° Northwest  Level FlightAware Approximate
Wed 03:59:00 AM 16.9443 -83.6198 322° Northwest  Level FlightAware Approximate
Wed 04:00:00 AM 17.0375 -83.6963 322° Northwest  Level FlightAware Approximate
Wed 04:01:00 AM 17.1308 -83.7729 322° Northwest  Level FlightAware Approximate
Wed 04:02:00 AM 17.2239 -83.8495 322° Northwest  Level FlightAware Approximate
Wed 04:03:00 AM 17.3171 -83.9262 322° Northwest  Level FlightAware Approximate
Wed 04:04:00 AM 17.4102 -84.0030 322° Northwest  Level FlightAware Approximate
Wed 04:05:00 AM 17.5033 -84.0799 322° Northwest  Level FlightAware Approximate
Wed 04:06:00 AM 17.5964 -84.1568 322° Northwest  Level FlightAware Approximate
Wed 04:07:00 AM 17.6894 -84.2338 322° Northwest  Level FlightAware Approximate
Wed 04:08:00 AM 17.7824 -84.3109 322° Northwest  Level FlightAware Approximate
Wed 04:09:00 AM 17.8754 -84.3881 322° Northwest  Level FlightAware Approximate
Wed 04:10:00 AM 17.9684 -84.4654 322° Northwest  Level FlightAware Approximate
Wed 04:11:00 AM 18.0613 -84.5427 322° Northwest  Level FlightAware Approximate
Wed 04:12:00 AM 18.1542 -84.6202 321° Northwest  Level FlightAware Approximate
Wed 04:13:00 AM 18.2468 -84.6981 321° Northwest  Level FlightAware Approximate
Wed 04:14:00 AM 18.3393 -84.7760 321° Northwest  Level FlightAware Approximate
Wed 04:15:00 AM 18.4318 -84.8541 321° Northwest  Level FlightAware Approximate
Wed 04:16:00 AM 18.5243 -84.9322 321° Northwest  Level FlightAware Approximate
Wed 04:17:00 AM 18.6168 -85.0104 321° Northwest  Level FlightAware Approximate
Wed 04:18:00 AM 18.7092 -85.0887 321° Northwest  Level FlightAware Approximate
Wed 04:19:00 AM 18.8016 -85.1671 321° Northwest  Level FlightAware Approximate
Wed 04:20:00 AM 18.8939 -85.2456 321° Northwest  Level FlightAware Approximate
Wed 04:21:00 AM 18.9863 -85.3241 321° Northwest  Level FlightAware Approximate
Wed 04:22:00 AM 19.0784 -85.4030 321° Northwest  Level FlightAware Approximate
Wed 04:23:00 AM 19.1703 -85.4822 321° Northwest  Level FlightAware Approximate
Wed 04:24:00 AM 19.2622 -85.5614 321° Northwest  Level FlightAware Approximate
Wed 04:25:00 AM 19.3541 -85.6407 321° Northwest  Level FlightAware Approximate
Wed 04:26:00 AM 19.4459 -85.7201 321° Northwest  Level FlightAware Approximate
Wed 04:27:00 AM 19.5377 -85.7996 321° Northwest  Level FlightAware Approximate
Wed 04:28:00 AM 19.6295 -85.8792 321° Northwest  Level FlightAware Approximate
Wed 04:29:00 AM 19.7212 -85.9589 321° Northwest  Level FlightAware Approximate
Wed 04:30:00 AM 19.8129 -86.0387 321° Northwest  Level FlightAware Approximate
Wed 04:31:00 AM 19.9048 -86.1183 321° Northwest  Level FlightAware Approximate
Wed 04:32:00 AM 19.9970 -86.1974 321° Northwest  Level FlightAware Approximate
Wed 04:33:00 AM 20.0910 -86.2744 322° Northwest  Level FlightAware Approximate
Wed 04:34:00 AM 20.1849 -86.3513 321° Northwest  Level FlightAware Approximate
Wed 04:35:00 AM 20.2765 -86.4315 321° Northwest  Level FlightAware Approximate
Wed 04:36:00 AM 20.3680 -86.5118 321° Northwest  Level FlightAware Approximate
Wed 04:37:00 AM 20.4595 -86.5921 321° Northwest  Level FlightAware Approximate
Wed 04:38:00 AM 20.5510 -86.6726 321° Northwest  Level FlightAware Approximate
Wed 04:39:00 AM 20.6424 -86.7531 321° Northwest  Level FlightAware Approximate
Wed 04:40:00 AM 20.7338 -86.8338 321° Northwest  Level FlightAware Approximate
Wed 04:41:00 AM 20.8253 -86.9144 321° Northwest  Level FlightAware Approximate
Wed 04:42:00 AM 20.9167 -86.9951 320° Northwest  Level FlightAware Approximate
Wed 04:43:00 AM 21.0081 -87.0759 320° Northwest  Level FlightAware Approximate
Wed 04:44:00 AM 21.0994 -87.1568 320° Northwest  Level FlightAware Approximate
Wed 04:45:00 AM 21.1908 -87.2378 320° Northwest  Level FlightAware Approximate
Wed 04:46:00 AM 21.2820 -87.3189 320° Northwest  Level FlightAware Approximate
Wed 04:47:00 AM 21.3733 -87.4001 320° Northwest  Level FlightAware Approximate
Wed 04:48:00 AM 21.4645 -87.4814 320° Northwest  Level FlightAware Approximate
Wed 04:49:00 AM 21.5553 -87.5631 320° Northwest  Level FlightAware Approximate
Wed 04:50:00 AM 21.6462 -87.6450 320° Northwest  Level FlightAware Approximate
Wed 04:51:00 AM 21.7370 -87.7269 320° Northwest  Level FlightAware Approximate
Wed 04:52:00 AM 21.8277 -87.8090 320° Northwest  Level FlightAware Approximate
Wed 04:53:00 AM 21.9185 -87.8912 320° Northwest  Level FlightAware Approximate
Wed 04:54:00 AM 22.0091 -87.9734 320° Northwest  Level FlightAware Approximate
Wed 04:55:00 AM 22.0998 -88.0558 320° Northwest  Level FlightAware Approximate
Wed 04:56:00 AM 22.1935 -88.1335 330° Northwest  Level FlightAware Approximate
Wed 04:57:00 AM 22.2961 -88.1976 330° Northwest  Level FlightAware Approximate
Wed 04:58:00 AM 22.3894 -88.2766 322° Northwest  Level FlightAware Approximate
Wed 04:59:00 AM 22.4873 -88.3485 328° Northwest  Level FlightAware Approximate
Wed 05:00:00 AM 22.5874 -88.4173 328° Northwest  Level FlightAware Approximate
Wed 05:01:00 AM 22.6873 -88.4863 325° Northwest  Level FlightAware Approximate
Wed 05:02:00 AM 22.7845 -88.5598 325° Northwest  Level FlightAware Approximate
Wed 05:03:00 AM 22.8817 -88.6334 325° Northwest  Level FlightAware Approximate
Wed 05:04:00 AM 22.9788 -88.7071 325° Northwest  Level FlightAware Approximate
Wed 05:05:00 AM 23.0759 -88.7809 325° Northwest  Level FlightAware Approximate
Wed 05:06:00 AM 23.1730 -88.8549 324° Northwest  Level FlightAware Approximate
Wed 05:07:00 AM 23.2694 -88.9299 324° Northwest  Level FlightAware Approximate
Wed 05:08:00 AM 23.3665 -89.0038 326° Northwest  Level FlightAware Approximate
Wed 05:09:00 AM 23.4643 -89.0768 326° Northwest  Level FlightAware Approximate
Wed 05:10:00 AM 23.5620 -89.1498 326° Northwest  Level FlightAware Approximate
Wed 05:11:00 AM 23.6597 -89.2230 326° Northwest  Level FlightAware Approximate
Wed 05:12:00 AM 23.7574 -89.2963 326° Northwest  Level FlightAware Approximate
Wed 05:13:00 AM 23.8551 -89.3697 325° Northwest  Level FlightAware Approximate
Wed 05:14:00 AM 23.9527 -89.4432 325° Northwest  Level FlightAware Approximate
Wed 05:15:00 AM 24.0503 -89.5169 326° Northwest  Level FlightAware Approximate
Wed 05:16:00 AM 24.1490 -89.5888 326° Northwest  Level FlightAware Approximate
Wed 05:17:00 AM 24.2476 -89.6608 326° Northwest  Level FlightAware Approximate
Wed 05:18:00 AM 24.3489 -89.7298 325° Northwest  Level FlightAware Approximate
Wed 05:19:00 AM 24.4465 -89.8050 325° Northwest  Level FlightAware Approximate
Wed 05:20:00 AM 24.5426 -89.8824 325° Northwest  Level FlightAware Approximate
Wed 05:21:00 AM 24.6406 -89.9571 325° Northwest  Level FlightAware Approximate
Wed 05:22:00 AM 24.7374 -90.0310 325° Northwest  Level FlightAware Approximate
Wed 05:23:00 AM 24.8342 -90.1049 325° Northwest  Level FlightAware Approximate
Wed 05:24:00 AM 24.9310 -90.1791 325° Northwest  Level FlightAware Approximate
Wed 05:25:00 AM 25.0277 -90.2533 325° Northwest  Level FlightAware Approximate
Wed 05:26:00 AM 25.1243 -90.3276 325° Northwest  Level FlightAware Approximate
Wed 05:27:00 AM 25.2210 -90.4021 325° Northwest  Level FlightAware Approximate
Wed 05:28:00 AM 25.3176 -90.4767 325° Northwest  Level FlightAware Approximate
Wed 05:29:00 AM 25.4141 -90.5514 325° Northwest  Level FlightAware Approximate
Wed 05:30:00 AM 25.5106 -90.6262 325° Northwest  Level FlightAware Approximate
Wed 05:31:00 AM 25.6071 -90.7011 325° Northwest  Level FlightAware Approximate
Wed 05:31:21 AM 26.5225 -91.4300 325° Northwest 253 291 40,000  Level Houston Center
Wed 05:32:00 AM 25.7036 -90.7762 325° Northwest  Level FlightAware Approximate
Wed 05:32:21 AM 26.6017 -91.4964 323° Northwest 414 476 40,000  Level Houston Center
Wed 05:33:00 AM 25.7999 -90.8514 325° Northwest  Level FlightAware Approximate
Wed 05:33:21 AM 26.7192 -91.5875 325° Northwest 418 481 39,900  Level Houston Center
Wed 05:34:00 AM 25.8963 -90.9267 325° Northwest  Level FlightAware Approximate
Wed 05:34:21 AM 26.8147 -91.6592 326° Northwest 422 486 39,900  Level Houston Center
Wed 05:35:00 AM 25.9926 -91.0021 325° Northwest  Level FlightAware Approximate
Wed 05:35:21 AM 26.9069 -91.7336 324° Northwest 432 497 40,000  Level Houston Center
Wed 05:36:00 AM 26.0889 -91.0777 325° Northwest  Level FlightAware Approximate
Wed 05:36:22 AM 27.0056 -91.8131 324° Northwest 436 502 40,000  Level Houston Center
Wed 05:37:22 AM 27.1042 -91.8936 324° Northwest 438 504 40,000  Level Houston Center
Wed 05:38:22 AM 27.2028 -91.9725 325° Northwest 436 502 40,000  Level Houston Center
Wed 05:39:22 AM 27.2975 -92.0547 322° Northwest 432 497 40,000  Level Houston Center
Wed 05:40:23 AM 27.3831 -92.1500 315° West 432 497 40,000 -50 Level Houston Center
Wed 05:41:23 AM 27.4706 -92.2431 317° Northwest 431 496 39,900  Descending Houston Center
Wed 05:42:23 AM 27.5567 -92.3350 317° Northwest 429 494 40,000 50 Climbing Houston Center
Wed 05:43:23 AM 27.6433 -92.4267 317° Northwest 427 491 40,000  Level Houston Center
Wed 05:44:24 AM 27.7294 -92.5203 316° Northwest 429 494 40,000 -50 Level Houston Center
Wed 05:45:24 AM 27.8175 -92.6108 318° Northwest 428 493 39,900  Descending Houston Center
Wed 05:46:24 AM 27.9044 -92.7042 317° Northwest 430 495 40,000 50 Climbing Houston Center
Wed 05:47:24 AM 27.9914 -92.7981 316° Northwest 432 497 40,000  Level Houston Center
Wed 05:48:25 AM 28.0783 -92.8939 316° Northwest 435 501 40,000  Level Houston Center
Wed 05:49:25 AM 28.1667 -92.9883 317° Northwest 437 503 40,000  Level Houston Center
Wed 05:50:25 AM 28.2544 -93.0853 316° Northwest 439 505 40,000  Level Houston Center
Wed 05:51:25 AM 28.3428 -93.1794 317° Northwest 438 504 40,000  Level Houston Center
Wed 05:52:26 AM 28.4272 -93.2744 315° West 437 503 40,000 -50 Level Houston Center
Wed 05:53:26 AM 28.5158 -93.3689 317° Northwest 436 502 39,900 -550 Descending Houston Center
Wed 05:54:26 AM 28.6072 -93.4683 316° Northwest 442 509 38,900 -950 Descending Houston Center
Wed 05:55:26 AM 28.6950 -93.5625 317° Northwest 447 514 38,000 -893 Descending Houston Center
Wed 05:56:27 AM 28.7825 -93.6586 316° Northwest 439 505 37,100 -1,438 Descending Houston Center
Wed 05:57:27 AM 28.8725 -93.7575 316° Northwest 437 503 35,100 -3,000 Descending Houston Center
Wed 05:58:27 AM 28.9722 -93.8708 315° West 437 503 31,100 -3,789 Descending Houston Center
Wed 05:58:43 AM 28.9950 -93.8983 313° West 437 503 30,300 -3,692 Descending Houston Center
Wed 05:59:19 AM 29.0422 -93.9494 317° Northwest 430 495 27,900 -2,969 Descending Houston Center
Wed 06:00:20 AM 29.1319 -94.0453 317° Northwest 417 480 25,500 -2,362 Descending Houston Center
Wed 06:01:26 AM 29.2222 -94.1461 316° Northwest 398 458 22,900 -2,268 Descending Houston Center
Wed 06:02:27 AM 29.2961 -94.2322 315° West 381 438 20,700 -2,243 Descending Houston Center
Wed 06:03:21 AM 29.3644 -94.3072 316° Northwest 376 433 18,600 -2,243 Descending Houston Center
Wed 06:04:22 AM 29.4378 -94.3889 316° Northwest 366 421 16,400 -2,132 Descending Houston Center
Wed 06:05:22 AM 29.5158 -94.4556 323° Northwest 345 397 14,300 -2,033 Descending Houston Center
Wed 06:06:23 AM 29.5958 -94.5200 325° Northwest 343 395 12,300 -1,828 Descending Houston Center
Wed 06:07:30 AM 29.6747 -94.5850 324° Northwest 337 388 10,400 -1,438 Descending Houston Center
Wed 06:08:24 AM 29.7464 -94.6425 325° Northwest 304 350 9,400 -1,266 Descending Houston Center
Wed 06:09:19 AM 29.8033 -94.6883 325° Northwest 296 341 8,100 -1,409 Descending Houston Center
Wed 06:10:19 AM 29.8722 -94.7494 322° Northwest 295 339 6,700 -1,240 Descending Houston Center
Wed 06:11:20 AM 29.9047 -94.8250 296° West 254 292 5,600 -984 Descending Houston Center
Wed 06:12:21 AM 29.9342 -94.8911 297° West 228 262 4,700 -893 Descending Houston Center
Wed 06:13:21 AM 29.9586 -94.9483 296° West 196 226 3,800 -1,043 Descending Houston Center
Wed 06:14:16 AM 29.9761 -95.0017 291° West 187 215 2,700 -1,014 Descending Houston Center
Wed 06:14:32 AM 29.9783 -95.0086 290° West 197 227 2,600 -627 Descending Houston Center
Wed 06:15:23 AM 29.9775 -95.0619 269° West 172 198 2,000 -706 Descending Houston Center

Login

Don't have an account? Register now (free) for customized features, flight alerts, and more!